CJY5 weather

Strathclair Airport
Strathclair, Manitoba, Canada

Public forecast

Using degrees Celsius for public forecast. Weather courtesy of forecast.io.

METAR (pilot weather report)

Closest report is Brandon Municipal Airport, 34.4 nm (63.7 km) SSE. Retrieved 2019/05/23 12:00 UTC (16 minutes ago):

CYBR 231200Z 32005KT 15SM FEW120 SCT240 05/02 A3005 RMK AC1CI3 SLP191

TAF (pilot weather forecast)

Closest forecast is Brandon Municipal Airport, 34.4 nm (63.7 km) SSE. Retrieved 2019/05/23 12:42 UTC (0 seconds ago):

TAF CYBR 231138Z 2312/2324 30008KT P6SM SCT100 BECMG 2313/2315 06008KT BECMG 2321/2323 09010KT RMK NXT FCST BY 231800Z